sensor_id;sensor_type;location;lat;lon;timestamp;pressure;altitude;pressure_sealevel;temperature;humidity
5996;BME280;3026;53.612;7.278;2022-07-11T00:00:56;102220.28;;;15.91;100.00
5996;BME280;3026;53.612;7.278;2022-07-11T00:03:23;102213.06;;;15.90;100.00
5996;BME280;3026;53.612;7.278;2022-07-11T00:05:50;102210.31;;;15.90;100.00
5996;BME280;3026;53.612;7.278;2022-07-11T00:08:17;102205.47;;;15.92;100.00
5996;BME280;3026;53.612;7.278;2022-07-11T00:10:44;102197.06;;;15.93;100.00
5996;BME280;3026;53.612;7.278;2022-07-11T00:13:11;102196.19;;;15.93;100.00
5996;BME280;3026;53.612;7.278;2022-07-11T00:15:40;102201.69;;;15.93;100.00
5996;BME280;3026;53.612;7.278;2022-07-11T00:18:06;102192.41;;;15.94;100.00
5996;BME280;3026;53.612;7.278;2022-07-11T00:20:33;102196.00;;;15.94;100.00
5996;BME280;3026;53.612;7.278;2022-07-11T00:23:00;102194.97;;;15.95;100.00
5996;BME280;3026;53.612;7.278;2022-07-11T00:25:27;102203.91;;;15.97;100.00
5996;BME280;3026;53.612;7.278;2022-07-11T00:27:53;102200.16;;;15.98;100.00
5996;BME280;3026;53.612;7.278;2022-07-11T00:30:20;102200.16;;;15.98;100.00
5996;BME280;3026;53.612;7.278;2022-07-11T00:32:48;102201.00;;;15.99;100.00
5996;BME280;3026;53.612;7.278;2022-07-11T00:35:15;102191.72;;;16.00;100.00
5996;BME280;3026;53.612;7.278;2022-07-11T00:37:42;102198.94;;;16.01;100.00
5996;BME280;3026;53.612;7.278;2022-07-11T00:40:09;102197.91;;;16.02;100.00
5996;BME280;3026;53.612;7.278;2022-07-11T00:42:36;102195.16;;;16.02;100.00
5996;BME280;3026;53.612;7.278;2022-07-11T00:45:03;102181.41;;;16.02;100.00
5996;BME280;3026;53.612;7.278;2022-07-11T00:47:30;102182.44;;;16.01;100.00
5996;BME280;3026;53.612;7.278;2022-07-11T00:49:58;102180.72;;;16.00;100.00
5996;BME280;3026;53.612;7.278;2022-07-11T00:52:25;102182.44;;;16.01;100.00
5996;BME280;3026;53.612;7.278;2022-07-11T00:54:52;102176.06;;;16.00;100.00
5996;BME280;3026;53.612;7.278;2022-07-11T00:57:20;102186.91;;;16.02;100.00
5996;BME280;3026;53.612;7.278;2022-07-11T00:59:48;102183.28;;;16.01;100.00
5996;BME280;3026;53.612;7.278;2022-07-11T01:02:15;102182.44;;;16.01;100.00
5996;BME280;3026;53.612;7.278;2022-07-11T01:04:41;102185.00;;;16.02;100.00
5996;BME280;3026;53.612;7.278;2022-07-11T01:07:10;102184.16;;;16.02;100.00
5996;BME280;3026;53.612;7.278;2022-07-11T01:09:37;102178.66;;;16.02;100.00
5996;BME280;3026;53.612;7.278;2022-07-11T01:12:05;102174.84;;;16.03;100.00
5996;BME280;3026;53.612;7.278;2022-07-11T01:14:32;102178.28;;;16.05;100.00
5996;BME280;3026;53.612;7.278;2022-07-11T01:16:59;102172.78;;;16.05;100.00
5996;BME280;3026;53.612;7.278;2022-07-11T01:19:26;102178.28;;;16.05;100.00
5996;BME280;3026;53.612;7.278;2022-07-11T01:21:56;102178.28;;;16.05;100.00
5996;BME280;3026;53.612;7.278;2022-07-11T01:24:26;102177.41;;;16.04;100.00
5996;BME280;3026;53.612;7.278;2022-07-11T01:26:53;102174.50;;;16.06;100.00
5996;BME280;3026;53.612;7.278;2022-07-11T01:29:20;102172.78;;;16.05;100.00
5996;BME280;3026;53.612;7.278;2022-07-11T01:31:47;102174.84;;;16.03;100.00
5996;BME280;3026;53.612;7.278;2022-07-11T01:34:14;102179.50;;;16.02;100.00
5996;BME280;3026;53.612;7.278;2022-07-11T01:36:41;102171.78;;;15.98;100.00
5996;BME280;3026;53.612;7.278;2022-07-11T01:39:08;102172.66;;;15.98;100.00
5996;BME280;3026;53.612;7.278;2022-07-11T01:41:36;102173.66;;;15.97;100.00
5996;BME280;3026;53.612;7.278;2022-07-11T01:44:03;102169.19;;;15.96;100.00
5996;BME280;3026;53.612;7.278;2022-07-11T01:46:30;102173.81;;;15.96;100.00
5996;BME280;3026;53.612;7.278;2022-07-11T01:48:57;102173.81;;;15.96;100.00
5996;BME280;3026;53.612;7.278;2022-07-11T01:51:23;102175.91;;;15.94;100.00
5996;BME280;3026;53.612;7.278;2022-07-11T01:53:51;102174.19;;;15.93;100.00
5996;BME280;3026;53.612;7.278;2022-07-11T01:56:19;102180.53;;;15.93;100.00
5996;BME280;3026;53.612;7.278;2022-07-11T01:58:48;102172.47;;;15.92;100.00
5996;BME280;3026;53.612;7.278;2022-07-11T02:01:14;102180.72;;;15.92;100.00
5996;BME280;3026;53.612;7.278;2022-07-11T02:03:42;102178.84;;;15.92;100.00
5996;BME280;3026;53.612;7.278;2022-07-11T02:06:08;102182.63;;;15.91;100.00
5996;BME280;3026;53.612;7.278;2022-07-11T02:08:35;102175.22;;;15.92;100.00
5996;BME280;3026;53.612;7.278;2022-07-11T02:11:02;102172.47;;;15.92;100.00
5996;BME280;3026;53.612;7.278;2022-07-11T02:13:29;102169.72;;;15.92;100.00
5996;BME280;3026;53.612;7.278;2022-07-11T02:15:57;102178.84;;;15.92;100.00
5996;BME280;3026;53.612;7.278;2022-07-11T02:18:24;102177.97;;;15.92;100.00
5996;BME280;3026;53.612;7.278;2022-07-11T02:20:51;102174.19;;;15.93;100.00
5996;BME280;3026;53.612;7.278;2022-07-11T02:23:18;102177.13;;;15.91;100.00
5996;BME280;3026;53.612;7.278;2022-07-11T02:25:46;102172.47;;;15.92;100.00
5996;BME280;3026;53.612;7.278;2022-07-11T02:28:13;102171.78;;;15.90;100.00
5996;BME280;3026;53.612;7.278;2022-07-11T02:30:42;102168.19;;;15.89;100.00
5996;BME280;3026;53.612;7.278;2022-07-11T02:33:10;102172.84;;;15.89;100.00
5996;BME280;3026;53.612;7.278;2022-07-11T02:35:40;102168.56;;;15.86;100.00
5996;BME280;3026;53.612;7.278;2022-07-11T02:38:07;102174.06;;;15.86;100.00
5996;BME280;3026;53.612;7.278;2022-07-11T02:40:34;102165.94;;;15.85;100.00
5996;BME280;3026;53.612;7.278;2022-07-11T02:43:01;102166.81;;;15.85;100.00
5996;BME280;3026;53.612;7.278;2022-07-11T02:45:29;102167.66;;;15.86;100.00
5996;BME280;3026;53.612;7.278;2022-07-11T02:47:56;102163.03;;;15.86;100.00
5996;BME280;3026;53.612;7.278;2022-07-11T02:50:24;102166.81;;;15.85;100.00
5996;BME280;3026;53.612;7.278;2022-07-11T02:52:51;102174.06;;;15.86;100.00
5996;BME280;3026;53.612;7.278;2022-07-11T02:55:18;102164.59;;;15.89;100.00
5996;BME280;3026;53.612;7.278;2022-07-11T02:57:44;102167.34;;;15.89;100.00
5996;BME280;3026;53.612;7.278;2022-07-11T03:00:13;102165.44;;;15.89;100.00
5996;BME280;3026;53.612;7.278;2022-07-11T03:02:41;102166.97;;;15.92;100.00
5996;BME280;3026;53.612;7.278;2022-07-11T03:05:08;102165.25;;;15.91;100.00
5996;BME280;3026;53.612;7.278;2022-07-11T03:07:36;102166.97;;;15.92;100.00
5996;BME280;3026;53.612;7.278;2022-07-11T03:10:03;102154.25;;;15.91;100.00
5996;BME280;3026;53.612;7.278;2022-07-11T03:12:31;102158.91;;;15.90;100.00
5996;BME280;3026;53.612;7.278;2022-07-11T03:14:57;102158.22;;;15.88;100.00
5996;BME280;3026;53.612;7.278;2022-07-11T03:17:24;102160.13;;;15.88;100.00
5996;BME280;3026;53.612;7.278;2022-07-11T03:19:51;102164.91;;;15.86;100.00
5996;BME280;3026;53.612;7.278;2022-07-11T03:22:18;102167.66;;;15.86;100.00
5996;BME280;3026;53.612;7.278;2022-07-11T03:24:46;102163.91;;;15.87;100.00
5996;BME280;3026;53.612;7.278;2022-07-11T03:27:13;102168.38;;;15.88;100.00
5996;BME280;3026;53.612;7.278;2022-07-11T03:29:39;102172.84;;;15.89;100.00
5996;BME280;3026;53.612;7.278;2022-07-11T03:32:07;102162.69;;;15.89;100.00
5996;BME280;3026;53.612;7.278;2022-07-11T03:34:34;102169.03;;;15.90;100.00
5996;BME280;3026;53.612;7.278;2022-07-11T03:37:01;102170.09;;;15.89;100.00
5996;BME280;3026;53.612;7.278;2022-07-11T03:39:28;102164.59;;;15.89;100.00
5996;BME280;3026;53.612;7.278;2022-07-11T03:41:57;102174.56;;;15.90;100.00
5996;BME280;3026;53.612;7.278;2022-07-11T03:44:24;102172.84;;;15.89;100.00
5996;BME280;3026;53.612;7.278;2022-07-11T03:46:50;102172.84;;;15.89;100.00
5996;BME280;3026;53.612;7.278;2022-07-11T03:49:17;102169.03;;;15.90;100.00
5996;BME280;3026;53.612;7.278;2022-07-11T03:51:44;102171.78;;;15.90;100.00
5996;BME280;3026;53.612;7.278;2022-07-11T03:54:11;102180.03;;;15.90;100.00
5996;BME280;3026;53.612;7.278;2022-07-11T03:56:38;102169.03;;;15.90;100.00
5996;BME280;3026;53.612;7.278;2022-07-11T03:59:06;102169.91;;;15.90;100.00
5996;BME280;3026;53.612;7.278;2022-07-11T04:01:33;102169.03;;;15.90;100.00
5996;BME280;3026;53.612;7.278;2022-07-11T04:03:59;102173.50;;;15.91;100.00
5996;BME280;3026;53.612;7.278;2022-07-11T04:06:26;102172.84;;;15.89;100.00
5996;BME280;3026;53.612;7.278;2022-07-11T04:08:53;102181.09;;;15.89;100.00
5996;BME280;3026;53.612;7.278;2022-07-11T04:11:20;102174.72;;;15.88;100.00
5996;BME280;3026;53.612;7.278;2022-07-11T04:13:47;102178.34;;;15.89;100.00
5996;BME280;3026;53.612;7.278;2022-07-11T04:16:15;102170.25;;;15.87;100.00
5996;BME280;3026;53.612;7.278;2022-07-11T04:18:42;102170.59;;;15.84;100.00
5996;BME280;3026;53.612;7.278;2022-07-11T04:21:09;102181.09;;;15.81;100.00
5996;BME280;3026;53.612;7.278;2022-07-11T04:23:36;102176.63;;;15.80;100.00
5996;BME280;3026;53.612;7.278;2022-07-11T04:26:04;102184.88;;;15.80;100.00
5996;BME280;3026;53.612;7.278;2022-07-11T04:28:30;102183.16;;;15.79;100.00
5996;BME280;3026;53.612;7.278;2022-07-11T04:30:58;102173.03;;;15.79;100.00
5996;BME280;3026;53.612;7.278;2022-07-11T04:33:26;102185.91;;;15.79;100.00
5996;BME280;3026;53.612;7.278;2022-07-11T04:35:53;102184.88;;;15.80;100.00
5996;BME280;3026;53.612;7.278;2022-07-11T04:38:20;102189.16;;;15.82;100.00
5996;BME280;3026;53.612;7.278;2022-07-11T04:40:47;102188.31;;;15.82;100.00
5996;BME280;3026;53.612;7.278;2022-07-11T04:43:14;102182.44;;;15.85;100.00
5996;BME280;3026;53.612;7.278;2022-07-11T04:45:41;102196.91;;;15.87;100.00
5996;BME280;3026;53.612;7.278;2022-07-11T04:48:08;102179.38;;;15.88;100.00
5996;BME280;3026;53.612;7.278;2022-07-11T04:50:36;102182.81;;;15.90;100.00
5996;BME280;3026;53.612;7.278;2022-07-11T04:53:03;102180.91;;;15.90;100.00
5996;BME280;3026;53.612;7.278;2022-07-11T04:55:30;102187.25;;;15.91;100.00
5996;BME280;3026;53.612;7.278;2022-07-11T04:57:56;102183.47;;;15.92;100.00
5996;BME280;3026;53.612;7.278;2022-07-11T05:00:23;102188.97;;;15.92;100.00
5996;BME280;3026;53.612;7.278;2022-07-11T05:02:50;102177.97;;;15.92;100.00
5996;BME280;3026;53.612;7.278;2022-07-11T05:05:17;102183.47;;;15.92;100.00
5996;BME280;3026;53.612;7.278;2022-07-11T05:07:46;102190.69;;;15.93;100.00
5996;BME280;3026;53.612;7.278;2022-07-11T05:10:13;102183.47;;;15.92;100.00
5996;BME280;3026;53.612;7.278;2022-07-11T05:12:40;102187.09;;;15.92;100.00
5996;BME280;3026;53.612;7.278;2022-07-11T05:15:08;102191.56;;;15.93;100.00
5996;BME280;3026;53.612;7.278;2022-07-11T05:17:34;102190.34;;;15.96;100.00
5996;BME280;3026;53.612;7.278;2022-07-11T05:20:02;102191.03;;;15.98;100.00
5996;BME280;3026;53.612;7.278;2022-07-11T05:22:30;102200.16;;;15.98;100.00
5996;BME280;3026;53.612;7.278;2022-07-11T05:24:58;102197.22;;;16.00;100.00
5996;BME280;3026;53.612;7.278;2022-07-11T05:27:25;102200.66;;;16.02;100.00
5996;BME280;3026;53.612;7.278;2022-07-11T05:29:51;102195.47;;;16.07;100.00
5996;BME280;3026;53.612;7.278;2022-07-11T05:32:18;102202.34;;;16.11;100.00
5996;BME280;3026;53.612;7.278;2022-07-11T05:34:45;102202.19;;;16.13;100.00
5996;BME280;3026;53.612;7.278;2022-07-11T05:37:12;102202.66;;;16.16;100.00
5996;BME280;3026;53.612;7.278;2022-07-11T05:39:38;102202.31;;;16.19;100.00
5996;BME280;3026;53.612;7.278;2022-07-11T05:42:07;102201.97;;;16.22;100.00
5996;BME280;3026;53.612;7.278;2022-07-11T05:44:34;102203.69;;;16.23;100.00
5996;BME280;3026;53.612;7.278;2022-07-11T05:47:01;102203.34;;;16.26;100.00
5996;BME280;3026;53.612;7.278;2022-07-11T05:49:28;102201.94;;;16.30;100.00
5996;BME280;3026;53.612;7.278;2022-07-11T05:51:57;102199.72;;;16.34;100.00
5996;BME280;3026;53.612;7.278;2022-07-11T05:54:24;102198.47;;;16.37;100.00
5996;BME280;3026;53.612;7.278;2022-07-11T05:56:50;102193.97;;;16.44;100.00
5996;BME280;3026;53.612;7.278;2022-07-11T05:59:19;102203.59;;;16.48;100.00
5996;BME280;3026;53.612;7.278;2022-07-11T06:01:46;102200.47;;;16.51;100.00
5996;BME280;3026;53.612;7.278;2022-07-11T06:04:13;102207.53;;;16.53;100.00
5996;BME280;3026;53.612;7.278;2022-07-11T06:06:40;102205.28;;;16.57;100.00
5996;BME280;3026;53.612;7.278;2022-07-11T06:09:07;102199.41;;;16.60;100.00
5996;BME280;3026;53.612;7.278;2022-07-11T06:11:33;102205.59;;;16.62;100.00
5996;BME280;3026;53.612;7.278;2022-07-11T06:14:00;102212.63;;;16.64;100.00
5996;BME280;3026;53.612;7.278;2022-07-11T06:16:29;102213.88;;;16.70;100.00
5996;BME280;3026;53.612;7.278;2022-07-11T06:18:55;102203.53;;;16.72;100.00
5996;BME280;3026;53.612;7.278;2022-07-11T06:21:22;102204.53;;;16.79;100.00
5996;BME280;3026;53.612;7.278;2022-07-11T06:23:49;102203.13;;;16.83;100.00
5996;BME280;3026;53.612;7.278;2022-07-11T06:26:16;102206.53;;;16.85;100.00
5996;BME280;3026;53.612;7.278;2022-07-11T06:28:43;102194.47;;;16.86;100.00
5996;BME280;3026;53.612;7.278;2022-07-11T06:31:10;102190.34;;;16.90;100.00
5996;BME280;3026;53.612;7.278;2022-07-11T06:33:39;102196.81;;;16.98;100.00
5996;BME280;3026;53.612;7.278;2022-07-11T06:36:06;102201.63;;;17.04;100.00
5996;BME280;3026;53.612;7.278;2022-07-11T06:38:33;102195.75;;;17.07;100.00
5996;BME280;3026;53.612;7.278;2022-07-11T06:41:00;102200.50;;;17.13;100.00
5996;BME280;3026;53.612;7.278;2022-07-11T06:43:29;102204.16;;;17.13;100.00
5996;BME280;3026;53.612;7.278;2022-07-11T06:45:56;102198.44;;;17.15;100.00
5996;BME280;3026;53.612;7.278;2022-07-11T06:48:23;102207.38;;;17.17;100.00
5996;BME280;3026;53.612;7.278;2022-07-11T06:50:52;102200.16;;;17.16;100.00
5996;BME280;3026;53.612;7.278;2022-07-11T06:53:20;102203.59;;;17.18;100.00
5996;BME280;3026;53.612;7.278;2022-07-11T06:55:47;102203.22;;;17.21;100.00
5996;BME280;3026;53.612;7.278;2022-07-11T06:58:13;102202.84;;;17.24;100.00
5996;BME280;3026;53.612;7.278;2022-07-11T07:00:56;102208.47;;;17.31;100.00
5996;BME280;3026;53.612;7.278;2022-07-11T07:03:24;102210.69;;;17.35;100.00
5996;BME280;3026;53.612;7.278;2022-07-11T07:05:52;102212.75;;;17.33;100.00
5996;BME280;3026;53.612;7.278;2022-07-11T07:08:22;102218.28;;;17.33;100.00
5996;BME280;3026;53.612;7.278;2022-07-11T07:10:49;102216.19;;;17.35;100.00
5996;BME280;3026;53.612;7.278;2022-07-11T07:13:15;102220.00;;;17.34;100.00
5996;BME280;3026;53.612;7.278;2022-07-11T07:15:42;102223.06;;;17.39;100.00
5996;BME280;3026;53.612;7.278;2022-07-11T07:18:09;102222.03;;;17.40;100.00
5996;BME280;3026;53.612;7.278;2022-07-11T07:20:37;102217.38;;;17.41;100.00
5996;BME280;3026;53.612;7.278;2022-07-11T07:23:05;102227.84;;;17.45;100.00
5996;BME280;3026;53.612;7.278;2022-07-11T07:25:32;102240.22;;;17.49;100.00
5996;BME280;3026;53.612;7.278;2022-07-11T07:27:59;102230.16;;;17.57;100.00
5996;BME280;3026;53.612;7.278;2022-07-11T07:30:26;102231.53;;;17.61;100.00
5996;BME280;3026;53.612;7.278;2022-07-11T07:32:53;102237.03;;;17.61;100.00
5996;BME280;3026;53.612;7.278;2022-07-11T07:35:20;102232.38;;;17.61;100.00
5996;BME280;3026;53.612;7.278;2022-07-11T07:37:47;102235.63;;;17.65;100.00
5996;BME280;3026;53.612;7.278;2022-07-11T07:40:15;102236.28;;;17.67;100.00
5996;BME280;3026;53.612;7.278;2022-07-11T07:42:41;102234.22;;;17.69;100.00
5996;BME280;3026;53.612;7.278;2022-07-11T07:45:09;102237.66;;;17.71;100.00
5996;BME280;3026;53.612;7.278;2022-07-11T07:47:35;102243.16;;;17.71;100.00
5996;BME280;3026;53.612;7.278;2022-07-11T07:50:04;102244.56;;;17.67;100.00
5996;BME280;3026;53.612;7.278;2022-07-11T07:52:31;102243.88;;;17.65;100.00
5996;BME280;3026;53.612;7.278;2022-07-11T07:54:58;102247.69;;;17.64;100.00
5996;BME280;3026;53.612;7.278;2022-07-11T07:57:26;102243.88;;;17.65;100.00
5996;BME280;3026;53.612;7.278;2022-07-11T07:59:54;102244.75;;;17.65;100.00
5996;BME280;3026;53.612;7.278;2022-07-11T08:02:41;102236.66;;;17.64;100.00
5996;BME280;3026;53.612;7.278;2022-07-11T08:05:08;102246.28;;;17.68;100.00
5996;BME280;3026;53.612;7.278;2022-07-11T08:07:35;102249.38;;;17.73;100.00
5996;BME280;3026;53.612;7.278;2022-07-11T08:10:04;102251.38;;;17.79;100.00
5996;BME280;3026;53.612;7.278;2022-07-11T08:12:32;102249.28;;;17.81;100.00
5996;BME280;3026;53.612;7.278;2022-07-11T08:14:59;102253.09;;;17.80;100.00
5996;BME280;3026;53.612;7.278;2022-07-11T08:17:26;102250.03;;;17.75;100.00
5996;BME280;3026;53.612;7.278;2022-07-11T08:19:52;102246.25;;;17.76;100.00
5996;BME280;3026;53.612;7.278;2022-07-11T08:22:19;102235.22;;;17.76;100.00
5996;BME280;3026;53.612;7.278;2022-07-11T08:24:46;102244.81;;;17.80;100.00
5996;BME280;3026;53.612;7.278;2022-07-11T08:27:13;102248.94;;;17.84;100.00
5996;BME280;3026;53.612;7.278;2022-07-11T08:29:41;102246.84;;;17.86;100.00
5996;BME280;3026;53.612;7.278;2022-07-11T08:32:08;102243.41;;;17.84;100.00
5996;BME280;3026;53.612;7.278;2022-07-11T08:34:36;102250.66;;;17.85;100.00
5996;BME280;3026;53.612;7.278;2022-07-11T08:37:03;102255.31;;;17.85;100.00
5996;BME280;3026;53.612;7.278;2022-07-11T08:39:30;102254.47;;;17.84;100.00
5996;BME280;3026;53.612;7.278;2022-07-11T08:41:57;102265.78;;;17.89;100.00
5996;BME280;3026;53.612;7.278;2022-07-11T08:44:24;102249.50;;;17.94;100.00
5996;BME280;3026;53.612;7.278;2022-07-11T08:46:53;102261.44;;;18.10;100.00
5996;BME280;3026;53.612;7.278;2022-07-11T08:49:20;102256.88;;;18.17;100.00
5996;BME280;3026;53.612;7.278;2022-07-11T08:51:47;102260.88;;;18.29;100.00
5996;BME280;3026;53.612;7.278;2022-07-11T08:54:14;102256.81;;;18.54;100.00
5996;BME280;3026;53.612;7.278;2022-07-11T08:56:43;102259.78;;;18.82;100.00
5996;BME280;3026;53.612;7.278;2022-07-11T08:59:13;102261.56;;;18.90;100.00
5996;BME280;3026;53.612;7.278;2022-07-11T09:01:45;102277.78;;;18.93;100.00
5996;BME280;3026;53.612;7.278;2022-07-11T09:04:15;102279.41;;;18.87;100.00
5996;BME280;3026;53.612;7.278;2022-07-11T09:06:42;102277.59;;;18.80;100.00
5996;BME280;3026;53.612;7.278;2022-07-11T09:09:09;102282.38;;;18.71;100.00
5996;BME280;3026;53.612;7.278;2022-07-11T09:11:50;102273.16;;;18.64;100.00
5996;BME280;3026;53.612;7.278;2022-07-11T09:14:22;102274.66;;;18.67;100.00
5996;BME280;3026;53.612;7.278;2022-07-11T09:16:54;102267.31;;;18.74;100.00
5996;BME280;3026;53.612;7.278;2022-07-11T09:19:24;102269.97;;;18.82;100.00
5996;BME280;3026;53.612;7.278;2022-07-11T09:22:03;102269.38;;;19.01;100.00
5996;BME280;3026;53.612;7.278;2022-07-11T09:24:55;102282.81;;;19.04;100.00
5996;BME280;3026;53.612;7.278;2022-07-11T09:27:40;102286.72;;;18.95;100.00
5996;BME280;3026;53.612;7.278;2022-07-11T09:30:23;102273.78;;;18.81;100.00
5996;BME280;3026;53.612;7.278;2022-07-11T09:32:55;102282.66;;;18.76;100.00
5996;BME280;3026;53.612;7.278;2022-07-11T09:35:26;102283.53;;;18.77;100.00
5996;BME280;3026;53.612;7.278;2022-07-11T09:37:53;102283.88;;;18.74;100.00
5996;BME280;3026;53.612;7.278;2022-07-11T09:40:21;102285.78;;;18.73;100.00
5996;BME280;3026;53.612;7.278;2022-07-11T09:42:49;102276.81;;;18.86;100.00
5996;BME280;3026;53.612;7.278;2022-07-11T09:45:17;102270.53;;;18.92;100.00
5996;BME280;3026;53.612;7.278;2022-07-11T09:47:46;102276.53;;;18.95;100.00
5996;BME280;3026;53.612;7.278;2022-07-11T09:50:17;102290.13;;;18.97;100.00
5996;BME280;3026;53.612;7.278;2022-07-11T09:53:00;102281.19;;;18.95;100.00
5996;BME280;3026;53.612;7.278;2022-07-11T09:55:29;102281.19;;;18.95;100.00
5996;BME280;3026;53.612;7.278;2022-07-11T09:57:56;102283.75;;;18.97;100.00
5996;BME280;3026;53.612;7.278;2022-07-11T10:00:23;102280.31;;;19.09;100.00
5996;BME280;3026;53.612;7.278;2022-07-11T10:02:51;102274.66;;;19.17;100.00
5996;BME280;3026;53.612;7.278;2022-07-11T10:05:19;102273.91;;;19.23;100.00
5996;BME280;3026;53.612;7.278;2022-07-11T10:07:48;102285.72;;;19.17;100.00
5996;BME280;3026;53.612;7.278;2022-07-11T10:10:16;102281.84;;;19.12;100.00
5996;BME280;3026;53.612;7.278;2022-07-11T10:12:44;102282.69;;;19.12;100.00
5996;BME280;3026;53.612;7.278;2022-07-11T10:15:14;102284.88;;;19.17;100.00
5996;BME280;3026;53.612;7.278;2022-07-11T10:17:46;102284.28;;;19.21;100.00
5996;BME280;3026;53.612;7.278;2022-07-11T10:20:21;102281.13;;;19.24;100.00
5996;BME280;3026;53.612;7.278;2022-07-11T10:22:57;102287.59;;;19.32;100.00
5996;BME280;3026;53.612;7.278;2022-07-11T10:25:35;102290.16;;;19.33;100.00
5996;BME280;3026;53.612;7.278;2022-07-11T10:28:12;102284.56;;;19.27;100.00
5996;BME280;3026;53.612;7.278;2022-07-11T10:30:40;102289.16;;;19.19;100.00
5996;BME280;3026;53.612;7.278;2022-07-11T10:33:09;102286.13;;;19.14;100.00
5996;BME280;3026;53.612;7.278;2022-07-11T10:35:39;102289.28;;;19.11;100.00
5996;BME280;3026;53.612;7.278;2022-07-11T10:38:06;102286.13;;;19.14;100.00
5996;BME280;3026;53.612;7.278;2022-07-11T10:40:42;102290.41;;;19.17;100.00
5996;BME280;3026;53.612;7.278;2022-07-11T10:43:10;102294.31;;;19.22;100.00
5996;BME280;3026;53.612;7.278;2022-07-11T10:45:49;102292.84;;;19.27;100.00
5996;BME280;3026;53.612;7.278;2022-07-11T10:48:20;102290.75;;;19.29;100.00
5996;BME280;3026;53.612;7.278;2022-07-11T10:50:53;102293.13;;;19.32;100.00
5996;BME280;3026;53.612;7.278;2022-07-11T10:53:22;102303.72;;;19.28;100.00
5996;BME280;3026;53.612;7.278;2022-07-11T10:56:02;102310.50;;;19.26;100.00
5996;BME280;3026;53.612;7.278;2022-07-11T10:58:32;102308.50;;;19.19;100.00
5996;BME280;3026;53.612;7.278;2022-07-11T11:01:09;102304.44;;;19.15;100.00
5996;BME280;3026;53.612;7.278;2022-07-11T11:03:37;102306.94;;;19.10;100.00
5996;BME280;3026;53.612;7.278;2022-07-11T11:06:04;102309.00;;;19.08;100.00
5996;BME280;3026;53.612;7.278;2022-07-11T11:08:42;102312.81;;;19.07;100.00
5996;BME280;3026;53.612;7.278;2022-07-11T11:11:37;102303.47;;;19.08;100.00
5996;BME280;3026;53.612;7.278;2022-07-11T11:14:18;102306.53;;;19.13;100.00
5996;BME280;3026;53.612;7.278;2022-07-11T11:16:46;102309.50;;;19.12;100.00
5996;BME280;3026;53.612;7.278;2022-07-11T11:19:53;102305.19;;;19.09;100.00
5996;BME280;3026;53.612;7.278;2022-07-11T11:22:22;102312.16;;;19.05;100.00
5996;BME280;3026;53.612;7.278;2022-07-11T11:24:52;102307.22;;;19.01;100.00
5996;BME280;3026;53.612;7.278;2022-07-11T11:27:21;102318.19;;;18.94;100.00
5996;BME280;3026;53.612;7.278;2022-07-11T11:29:52;102323.25;;;18.90;100.00
5996;BME280;3026;53.612;7.278;2022-07-11T11:32:20;102319.31;;;18.85;100.00
5996;BME280;3026;53.612;7.278;2022-07-11T11:34:47;102329.06;;;18.81;100.00
5996;BME280;3026;53.612;7.278;2022-07-11T11:37:16;102326.88;;;18.76;100.00
5996;BME280;3026;53.612;7.278;2022-07-11T11:39:44;102341.34;;;18.78;100.00
5996;BME280;3026;53.612;7.278;2022-07-11T11:42:13;102337.72;;;18.78;100.00
5996;BME280;3026;53.612;7.278;2022-07-11T11:44:56;102337.06;;;18.76;100.00
5996;BME280;3026;53.612;7.278;2022-07-11T11:47:25;102334.59;;;18.81;100.00
5996;BME280;3026;53.612;7.278;2022-07-11T11:49:52;102326.41;;;18.87;100.00
5996;BME280;3026;53.612;7.278;2022-07-11T11:52:20;102327.53;;;18.93;100.00
5996;BME280;3026;53.612;7.278;2022-07-11T11:54:53;102318.34;;;19.07;100.00
5996;BME280;3026;53.612;7.278;2022-07-11T11:57:22;102324.25;;;19.19;100.00
5996;BME280;3026;53.612;7.278;2022-07-11T11:59:49;102313.94;;;19.28;100.00
5996;BME280;3026;53.612;7.278;2022-07-11T12:02:27;102323.53;;;19.32;100.00
5996;BME280;3026;53.612;7.278;2022-07-11T12:04:55;102328.31;;;19.38;100.00
5996;BME280;3026;53.612;7.278;2022-07-11T12:07:23;102339.06;;;19.33;100.00
5996;BME280;3026;53.612;7.278;2022-07-11T12:09:52;102334.34;;;19.27;100.00
5996;BME280;3026;53.612;7.278;2022-07-11T12:12:23;102336.81;;;19.21;100.00
5996;BME280;3026;53.612;7.278;2022-07-11T12:15:22;102335.03;;;19.14;100.00
5996;BME280;3026;53.612;7.278;2022-07-11T12:17:53;102329.97;;;19.17;100.00
5996;BME280;3026;53.612;7.278;2022-07-11T12:20:35;102331.03;;;19.16;100.00
5996;BME280;3026;53.612;7.278;2022-07-11T12:23:04;102333.69;;;19.10;100.00
5996;BME280;3026;53.612;7.278;2022-07-11T12:25:31;102338.34;;;19.09;100.00
5996;BME280;3026;53.612;7.278;2022-07-11T12:27:58;102335.59;;;19.09;100.00
5996;BME280;3026;53.612;7.278;2022-07-11T12:30:25;102331.13;;;19.08;100.00
5996;BME280;3026;53.612;7.278;2022-07-11T12:33:05;102337.69;;;19.07;100.00
5996;BME280;3026;53.612;7.278;2022-07-11T12:35:33;102322.63;;;19.10;100.00
5996;BME280;3026;53.612;7.278;2022-07-11T12:38:00;102326.53;;;19.15;100.00
5996;BME280;3026;53.612;7.278;2022-07-11T12:40:27;102329.88;;;19.26;100.00
5996;BME280;3026;53.612;7.278;2022-07-11T12:42:54;102316.94;;;19.33;100.00
5996;BME280;3026;53.612;7.278;2022-07-11T12:45:21;102323.03;;;19.43;100.00
5996;BME280;3026;53.612;7.278;2022-07-11T12:47:49;102321.22;;;19.50;100.00
5996;BME280;3026;53.612;7.278;2022-07-11T12:50:20;102320.44;;;19.56;100.00
5996;BME280;3026;53.612;7.278;2022-07-11T12:52:51;102320.72;;;19.61;100.00
5996;BME280;3026;53.612;7.278;2022-07-11T12:55:22;102322.31;;;19.70;100.00
5996;BME280;3026;53.612;7.278;2022-07-11T12:58:06;102330.22;;;19.73;100.00
5996;BME280;3026;53.612;7.278;2022-07-11T13:00:34;102325.53;;;19.74;100.00
5996;BME280;3026;53.612;7.278;2022-07-11T13:03:02;102334.44;;;19.69;100.00
5996;BME280;3026;53.612;7.278;2022-07-11T13:05:45;102343.63;;;19.55;100.00
5996;BME280;3026;53.612;7.278;2022-07-11T13:08:22;102343.16;;;19.51;100.00